createdAt,value
2022-08-30T00:01:32.760Z,4.50
2022-08-30T00:04:35.524Z,4.13
2022-08-30T00:07:37.788Z,4.68
2022-08-30T00:10:41.533Z,4.00
2022-08-30T00:13:45.310Z,4.25
2022-08-30T00:16:47.512Z,4.40
2022-08-30T00:19:49.776Z,3.40
2022-08-30T00:22:52.104Z,3.97
2022-08-30T00:25:54.559Z,3.58
2022-08-30T00:28:56.847Z,3.70
2022-08-30T00:31:59.061Z,3.30
2022-08-30T00:35:02.030Z,3.53
2022-08-30T00:38:04.368Z,3.92
2022-08-30T00:41:07.111Z,3.63
2022-08-30T00:44:10.345Z,3.03
2022-08-30T00:47:13.161Z,3.40
2022-08-30T00:50:18.346Z,3.78
2022-08-30T00:53:25.442Z,3.47
2022-08-30T00:56:29.037Z,4.03
2022-08-30T00:59:31.939Z,3.28
2022-08-30T01:02:34.383Z,3.90
2022-08-30T01:05:38.816Z,3.65
2022-08-30T01:08:41.353Z,3.20
2022-08-30T01:11:45.232Z,3.85
2022-08-30T01:14:47.856Z,3.75
2022-08-30T01:17:50.846Z,3.50
2022-08-30T01:21:18.954Z,3.17
2022-08-30T01:24:22.506Z,3.92
2022-08-30T01:27:26.146Z,3.20
2022-08-30T01:30:30.047Z,3.45
2022-08-30T01:33:32.395Z,3.50
2022-08-30T01:36:37.816Z,3.00
2022-08-30T01:39:47.253Z,3.72
2022-08-30T01:42:50.254Z,3.35
2022-08-30T01:45:52.479Z,3.80
2022-08-30T01:48:57.407Z,3.60
2022-08-30T01:52:00.657Z,3.72
2022-08-30T01:55:05.070Z,3.38
2022-08-30T01:58:07.358Z,3.67
2022-08-30T02:01:12.949Z,4.03
2022-08-30T02:04:15.753Z,4.30
2022-08-30T02:07:17.979Z,3.42
2022-08-30T02:10:20.942Z,3.78
2022-08-30T02:13:23.646Z,4.53
2022-08-30T02:16:26.478Z,3.58
2022-08-30T02:19:29.679Z,3.60
2022-08-30T02:22:31.952Z,3.92
2022-08-30T02:25:34.268Z,3.90
2022-08-30T02:28:49.543Z,4.32
2022-08-30T02:31:52.393Z,3.90
2022-08-30T02:34:55.475Z,3.72
2022-08-30T02:37:57.873Z,4.28
2022-08-30T02:41:00.202Z,4.20
2022-08-30T02:44:02.598Z,4.55
2022-08-30T02:47:04.992Z,3.78
2022-08-30T02:50:08.619Z,4.05
2022-08-30T02:53:14.094Z,4.20
2022-08-30T02:56:18.681Z,4.38
2022-08-30T02:59:21.106Z,4.25
2022-08-30T03:02:23.656Z,4.53
2022-08-30T03:05:26.282Z,4.18
2022-08-30T03:08:28.582Z,4.15
2022-08-30T03:11:32.040Z,4.70
2022-08-30T03:14:36.372Z,4.82
2022-08-30T03:17:38.959Z,4.60
2022-08-30T03:20:41.605Z,4.20
2022-08-30T03:23:46.673Z,4.53
2022-08-30T03:26:48.827Z,4.43
2022-08-30T03:29:51.113Z,3.75
2022-08-30T03:32:53.341Z,3.90
2022-08-30T03:35:55.794Z,3.53
2022-08-30T03:38:58.221Z,3.67
2022-08-30T03:42:00.424Z,3.75
2022-08-30T03:45:03.839Z,3.20
2022-08-30T03:48:06.281Z,3.22
2022-08-30T03:51:08.670Z,3.30
2022-08-30T03:54:11.321Z,3.30
2022-08-30T03:57:19.703Z,2.92
2022-08-30T04:00:23.414Z,2.97
2022-08-30T04:03:26.485Z,3.10
2022-08-30T04:06:29.052Z,3.25
2022-08-30T04:09:31.602Z,3.20
2022-08-30T04:12:34.016Z,2.80
2022-08-30T04:15:36.251Z,3.05
2022-08-30T04:18:38.905Z,2.85
2022-08-30T04:21:43.108Z,2.70
2022-08-30T04:24:45.581Z,2.45
2022-08-30T04:27:47.759Z,2.92
2022-08-30T04:30:50.005Z,3.38
2022-08-30T04:33:52.142Z,2.80
2022-08-30T04:36:54.373Z,2.55
2022-08-30T04:40:03.481Z,3.00
2022-08-30T04:43:05.723Z,2.80
2022-08-30T04:46:08.845Z,2.58
2022-08-30T04:49:11.075Z,2.40
2022-08-30T04:52:13.432Z,2.85
2022-08-30T04:55:20.285Z,2.35
2022-08-30T04:58:22.770Z,2.50
2022-08-30T05:01:30.483Z,2.45
2022-08-30T05:04:32.702Z,2.75
2022-08-30T05:07:35.273Z,2.45
2022-08-30T05:10:45.071Z,2.22
2022-08-30T05:16:49.601Z,2.47
2022-08-30T05:19:51.861Z,2.10
2022-08-30T05:22:54.308Z,2.40
2022-08-30T05:25:56.492Z,2.28
2022-08-30T05:28:59.251Z,2.20
2022-08-30T05:32:01.543Z,2.10
2022-08-30T05:35:06.723Z,2.30
2022-08-30T05:38:08.960Z,2.17
2022-08-30T05:41:13.139Z,2.50
2022-08-30T05:44:15.323Z,2.03
2022-08-30T05:47:17.462Z,2.28
2022-08-30T05:50:24.307Z,2.10
2022-08-30T05:53:26.511Z,2.03
2022-08-30T05:56:33.069Z,2.30
2022-08-30T05:59:35.320Z,2.03
2022-08-30T06:02:37.661Z,2.40
2022-08-30T06:05:39.996Z,2.15
2022-08-30T06:08:45.665Z,2.35
2022-08-30T06:11:48.302Z,2.10
2022-08-30T06:14:50.460Z,2.38
2022-08-30T06:17:56.379Z,1.88
2022-08-30T06:20:58.793Z,1.73
2022-08-30T06:24:01.743Z,2.00
2022-08-30T06:27:04.499Z,2.20
2022-08-30T06:30:08.700Z,1.83
2022-08-30T06:33:11.133Z,1.95
2022-08-30T06:36:16.839Z,2.33
2022-08-30T06:39:19.044Z,2.25
2022-08-30T06:42:21.719Z,2.13
2022-08-30T06:45:23.992Z,2.20
2022-08-30T06:48:26.260Z,2.30
2022-08-30T06:51:31.617Z,1.80
2022-08-30T06:54:35.984Z,2.30
2022-08-30T06:57:38.441Z,2.28
2022-08-30T07:00:41.640Z,1.92
2022-08-30T07:03:44.056Z,2.22
2022-08-30T07:06:46.341Z,2.03
2022-08-30T07:09:49.021Z,2.10
2022-08-30T07:12:51.502Z,1.83
2022-08-30T07:15:54.030Z,1.60
2022-08-30T07:18:58.818Z,2.40
2022-08-30T07:22:01.998Z,2.10
2022-08-30T07:25:04.591Z,1.75
2022-08-30T07:28:07.300Z,1.98
2022-08-30T07:31:10.540Z,2.20
2022-08-30T07:34:12.965Z,1.85
2022-08-30T07:37:18.262Z,2.08
2022-08-30T07:40:20.856Z,2.22
2022-08-30T07:43:23.088Z,2.15
2022-08-30T07:46:26.060Z,2.13
2022-08-30T07:49:28.336Z,2.00
2022-08-30T07:52:31.286Z,2.55
2022-08-30T07:55:33.520Z,2.08
2022-08-30T07:58:37.694Z,2.58
2022-08-30T08:01:39.928Z,1.80
2022-08-30T08:04:42.221Z,1.98
2022-08-30T08:07:44.507Z,2.10
2022-08-30T08:10:46.703Z,1.85
2022-08-30T08:13:53.484Z,1.75
2022-08-30T08:16:56.469Z,2.10
2022-08-30T08:19:58.618Z,1.80
2022-08-30T08:23:01.254Z,1.83
2022-08-30T08:26:03.900Z,1.98
2022-08-30T08:29:08.671Z,1.90
2022-08-30T08:32:10.853Z,2.00
2022-08-30T08:35:13.145Z,2.00
2022-08-30T08:38:15.742Z,1.95
2022-08-30T08:41:30.297Z,2.00
2022-08-30T08:44:38.813Z,1.90
2022-08-30T08:47:44.403Z,2.15
2022-08-30T08:51:07.919Z,2.17
2022-08-30T08:54:15.260Z,2.13
2022-08-30T08:57:20.261Z,1.65
2022-08-30T09:00:25.068Z,2.00
2022-08-30T09:03:32.290Z,3.15
2022-08-30T09:07:04.248Z,2.45
2022-08-30T09:10:07.411Z,2.05
2022-08-30T09:13:12.976Z,1.70
2022-08-30T09:16:48.262Z,2.28
2022-08-30T09:19:53.776Z,2.08
2022-08-30T09:22:56.640Z,2.20
2022-08-30T09:26:02.331Z,2.38
2022-08-30T09:29:06.009Z,2.50
2022-08-30T09:32:39.016Z,2.15
2022-08-30T09:35:48.611Z,2.63
2022-08-30T09:39:00.148Z,2.30
2022-08-30T09:42:21.084Z,2.42
2022-08-30T09:45:31.995Z,2.50
2022-08-30T09:48:45.365Z,2.20
2022-08-30T09:51:59.879Z,2.22
2022-08-30T09:55:44.118Z,2.40
2022-08-30T09:59:21.492Z,2.38
2022-08-30T10:02:59.450Z,3.30
2022-08-30T10:06:29.064Z,2.65
2022-08-30T10:09:46.437Z,2.55
2022-08-30T10:13:03.709Z,2.80
2022-08-30T10:16:31.905Z,2.63
2022-08-30T10:20:11.146Z,2.45
2022-08-30T10:23:20.367Z,2.90
2022-08-30T10:26:35.017Z,2.90
2022-08-30T10:29:49.526Z,2.65
2022-08-30T10:33:01.970Z,2.33
2022-08-30T10:36:10.536Z,2.45
2022-08-30T10:39:19.959Z,2.50
2022-08-30T10:42:28.879Z,2.78
2022-08-30T10:45:34.898Z,2.80
2022-08-30T10:48:47.451Z,2.67
2022-08-30T10:52:35.727Z,3.25
2022-08-30T10:55:50.042Z,2.60
2022-08-30T10:58:54.534Z,2.65
2022-08-30T11:02:32.327Z,2.85
2022-08-30T11:05:56.280Z,3.25
2022-08-30T11:09:16.339Z,2.60
2022-08-30T11:12:29.242Z,3.00
2022-08-30T11:15:36.231Z,2.92
2022-08-30T11:18:51.110Z,2.78
2022-08-30T11:22:12.023Z,3.08
2022-08-30T11:25:38.789Z,2.83
2022-08-30T11:28:40.995Z,2.45
2022-08-30T11:31:43.481Z,2.70
2022-08-30T11:34:47.389Z,2.80
2022-08-30T11:37:50.651Z,2.97
2022-08-30T11:41:07.666Z,2.90
2022-08-30T11:47:45.846Z,3.92
2022-08-30T11:51:05.478Z,3.60
2022-08-30T11:57:42.961Z,3.50
2022-08-30T12:00:51.389Z,3.00
2022-08-30T12:04:46.378Z,3.88
2022-08-30T12:08:04.493Z,3.47
2022-08-30T12:11:12.799Z,3.47
2022-08-30T12:14:49.226Z,3.60
2022-08-30T12:18:16.756Z,3.03
2022-08-30T12:21:22.294Z,3.20
2022-08-30T12:24:28.615Z,3.00
2022-08-30T12:27:33.369Z,3.72
2022-08-30T12:30:39.725Z,3.58
2022-08-30T12:33:45.954Z,2.88
2022-08-30T12:37:28.830Z,3.70
2022-08-30T12:40:35.330Z,2.97
2022-08-30T12:43:41.404Z,2.75
2022-08-30T12:46:48.491Z,2.80
2022-08-30T12:49:52.129Z,3.25
2022-08-30T12:53:04.332Z,3.50
2022-08-30T12:56:10.392Z,4.10
2022-08-30T12:59:59.732Z,3.22
2022-08-30T13:03:25.360Z,3.70
2022-08-30T13:07:03.046Z,3.72
2022-08-30T13:10:19.666Z,3.65
2022-08-30T13:13:37.748Z,3.72
2022-08-30T13:16:45.038Z,3.53
2022-08-30T13:20:01.688Z,3.53
2022-08-30T13:23:11.153Z,3.40
2022-08-30T13:26:14.058Z,3.95
2022-08-30T13:29:27.677Z,4.40
2022-08-30T13:32:29.864Z,3.97
2022-08-30T13:35:32.844Z,3.22
2022-08-30T13:38:35.069Z,3.72
2022-08-30T13:41:39.524Z,4.20
2022-08-30T13:44:42.913Z,3.60
2022-08-30T13:47:48.422Z,4.20
2022-08-30T13:50:50.696Z,3.90
2022-08-30T13:53:53.884Z,4.43
2022-08-30T13:56:59.669Z,3.95
2022-08-30T14:00:09.744Z,4.05
2022-08-30T14:03:15.698Z,3.03
2022-08-30T14:06:32.735Z,3.53
2022-08-30T14:09:36.589Z,4.00
2022-08-30T14:12:58.861Z,3.90
2022-08-30T14:19:25.265Z,4.28
2022-08-30T14:22:27.509Z,3.60
2022-08-30T14:25:29.772Z,3.70
2022-08-30T14:28:32.808Z,3.88
2022-08-30T14:31:35.671Z,4.03
2022-08-30T14:34:37.972Z,3.60
2022-08-30T14:37:40.207Z,4.03
2022-08-30T14:40:42.749Z,3.70
2022-08-30T14:43:45.302Z,3.75
2022-08-30T14:46:47.633Z,3.97
2022-08-30T14:49:49.934Z,3.88
2022-08-30T14:52:52.517Z,3.70
2022-08-30T14:55:54.768Z,3.55
2022-08-30T14:59:00.663Z,3.83
2022-08-30T15:02:03.258Z,3.40
2022-08-30T15:05:06.875Z,3.63
2022-08-30T15:08:11.082Z,3.75
2022-08-30T15:11:15.616Z,4.30
2022-08-30T15:14:18.111Z,4.30
2022-08-30T15:17:20.364Z,3.80
2022-08-30T15:20:22.693Z,5.03
2022-08-30T15:23:25.092Z,4.55
2022-08-30T15:26:27.622Z,4.72
2022-08-30T15:29:31.782Z,5.05
2022-08-30T15:32:34.293Z,5.30
2022-08-30T15:35:36.737Z,6.32
2022-08-30T15:38:39.525Z,6.53
2022-08-30T15:41:44.485Z,5.15
2022-08-30T15:44:51.503Z,7.35
2022-08-30T15:47:55.077Z,4.60
2022-08-30T15:50:58.502Z,4.63
2022-08-30T15:54:00.704Z,4.20
2022-08-30T15:57:02.939Z,4.75
2022-08-30T16:00:11.833Z,4.22
2022-08-30T16:03:14.193Z,4.07
2022-08-30T16:06:20.854Z,4.10
2022-08-30T16:09:23.402Z,4.40
2022-08-30T16:12:25.580Z,5.03
2022-08-30T16:15:28.548Z,3.97
2022-08-30T16:18:31.461Z,6.47
2022-08-30T16:21:37.054Z,6.13
2022-08-30T16:24:41.401Z,4.75
2022-08-30T16:27:44.236Z,5.80
2022-08-30T16:30:46.428Z,5.78
2022-08-30T16:33:53.118Z,5.38
2022-08-30T16:36:56.383Z,4.38
2022-08-30T16:39:58.721Z,5.43
2022-08-30T16:43:01.233Z,4.90
2022-08-30T16:46:09.303Z,4.10
2022-08-30T16:49:13.051Z,4.40
2022-08-30T16:52:15.281Z,3.55
2022-08-30T16:55:17.696Z,3.90
2022-08-30T16:58:22.183Z,3.70
2022-08-30T17:01:31.189Z,3.83
2022-08-30T17:04:33.499Z,3.55
2022-08-30T17:07:35.721Z,3.50
2022-08-30T17:10:38.263Z,2.83
2022-08-30T17:13:40.621Z,2.65
2022-08-30T17:16:43.085Z,2.65
2022-08-30T17:19:47.719Z,2.40
2022-08-30T17:22:50.081Z,2.80
2022-08-30T17:25:53.263Z,2.88
2022-08-30T17:28:55.533Z,2.90
2022-08-30T17:31:58.188Z,2.65
2022-08-30T17:35:00.952Z,2.53
2022-08-30T17:38:03.380Z,2.65
2022-08-30T17:41:08.978Z,2.60
2022-08-30T17:44:12.432Z,2.33
2022-08-30T17:47:14.929Z,2.40
2022-08-30T17:50:19.492Z,2.30
2022-08-30T17:53:21.864Z,2.67
2022-08-30T17:56:33.956Z,2.20
2022-08-30T17:59:38.460Z,2.28
2022-08-30T18:02:41.737Z,2.78
2022-08-30T18:05:46.914Z,2.30
2022-08-30T18:08:49.164Z,2.17
2022-08-30T18:11:56.533Z,2.88
2022-08-30T18:14:58.904Z,2.55
2022-08-30T18:18:01.186Z,2.28
2022-08-30T18:21:13.841Z,2.33
2022-08-30T18:24:17.183Z,2.17
2022-08-30T18:27:19.366Z,2.40
2022-08-30T18:30:21.560Z,2.17
2022-08-30T18:33:25.158Z,2.20
2022-08-30T18:36:30.606Z,1.90
2022-08-30T18:39:34.991Z,1.88
2022-08-30T18:42:37.406Z,2.33
2022-08-30T18:45:44.955Z,2.15
2022-08-30T18:48:47.540Z,2.38
2022-08-30T18:51:49.703Z,2.25
2022-08-30T18:54:53.219Z,2.13
2022-08-30T18:57:56.675Z,2.17
2022-08-30T19:00:59.454Z,2.15
2022-08-30T19:04:02.147Z,2.30
2022-08-30T19:07:09.093Z,2.10
2022-08-30T19:10:13.440Z,2.28
2022-08-30T19:13:15.626Z,2.17
2022-08-30T19:16:17.819Z,2.33
2022-08-30T19:19:20.551Z,2.42
2022-08-30T19:22:26.740Z,2.20
2022-08-30T19:25:30.847Z,2.25
2022-08-30T19:28:34.843Z,2.25
2022-08-30T19:31:37.045Z,2.22
2022-08-30T19:34:39.406Z,2.38
2022-08-30T19:37:42.104Z,1.98
2022-08-30T19:40:44.410Z,2.00
2022-08-30T19:43:46.929Z,2.40
2022-08-30T19:46:51.938Z,2.10
2022-08-30T19:49:54.156Z,2.20
2022-08-30T19:52:56.732Z,1.80
2022-08-30T19:55:58.912Z,1.88
2022-08-30T19:59:02.158Z,1.95
2022-08-30T20:02:05.481Z,2.10
2022-08-30T20:05:10.389Z,1.70
2022-08-30T20:08:14.913Z,1.67
2022-08-30T20:11:20.033Z,1.90
2022-08-30T20:14:22.289Z,1.58
2022-08-30T20:17:25.360Z,2.00
2022-08-30T20:20:27.668Z,1.83
2022-08-30T20:23:31.268Z,2.05
2022-08-30T20:26:39.020Z,1.83
2022-08-30T20:29:42.027Z,1.60
2022-08-30T20:32:46.695Z,1.80
2022-08-30T20:35:49.823Z,1.45
2022-08-30T20:38:52.257Z,1.95
2022-08-30T20:41:54.606Z,1.70
2022-08-30T20:44:59.099Z,1.50
2022-08-30T20:48:02.243Z,1.90
2022-08-30T20:51:09.104Z,1.85
2022-08-30T20:54:12.219Z,1.52
2022-08-30T20:57:15.014Z,1.75
2022-08-30T21:00:18.168Z,1.80
2022-08-30T21:03:27.745Z,1.65
2022-08-30T21:06:35.468Z,1.60
2022-08-30T21:09:38.103Z,1.45
2022-08-30T21:12:40.264Z,1.60
2022-08-30T21:15:46.161Z,1.73
2022-08-30T21:18:48.580Z,1.65
2022-08-30T21:21:50.784Z,1.70
2022-08-30T21:24:53.662Z,1.70
2022-08-30T21:27:55.927Z,1.67
2022-08-30T21:31:13.703Z,1.75
2022-08-30T21:34:17.838Z,1.40
2022-08-30T21:37:20.026Z,1.40
2022-08-30T21:40:22.765Z,1.30
2022-08-30T21:43:25.032Z,1.52
2022-08-30T21:46:28.777Z,1.25
2022-08-30T21:49:31.348Z,1.67
2022-08-30T21:52:34.361Z,1.40
2022-08-30T21:55:36.843Z,1.40
2022-08-30T21:58:39.536Z,1.55
2022-08-30T22:01:43.365Z,1.50
2022-08-30T22:04:45.865Z,1.95
2022-08-30T22:07:49.111Z,1.83
2022-08-30T22:10:51.357Z,1.55
2022-08-30T22:13:54.683Z,1.60
2022-08-30T22:16:57.427Z,1.48
2022-08-30T22:19:59.653Z,1.42
2022-08-30T22:23:01.865Z,1.58
2022-08-30T22:26:07.061Z,1.70
2022-08-30T22:29:09.882Z,1.30
2022-08-30T22:32:12.162Z,1.60
2022-08-30T22:35:14.513Z,1.30
2022-08-30T22:38:16.986Z,1.27
2022-08-30T22:41:25.604Z,1.35
2022-08-30T22:44:33.214Z,1.40
2022-08-30T22:47:35.486Z,1.48
2022-08-30T22:50:38.657Z,1.48
2022-08-30T22:53:41.312Z,1.65
2022-08-30T22:56:43.712Z,1.45
2022-08-30T22:59:46.238Z,1.40
2022-08-30T23:02:50.763Z,1.60
2022-08-30T23:05:53.018Z,1.40
2022-08-30T23:08:55.289Z,1.50
2022-08-30T23:11:57.668Z,1.50
2022-08-30T23:14:59.918Z,1.50
2022-08-30T23:18:02.173Z,1.50
2022-08-30T23:21:08.144Z,1.30
2022-08-30T23:24:31.853Z,1.33
2022-08-30T23:27:52.529Z,1.10
2022-08-30T23:31:13.375Z,1.23
2022-08-30T23:34:34.086Z,1.50
2022-08-30T23:37:54.994Z,1.20
2022-08-30T23:41:16.005Z,1.20
2022-08-30T23:44:36.591Z,1.25
2022-08-30T23:47:57.295Z,1.27
2022-08-30T23:51:22.162Z,1.65
2022-08-30T23:54:43.708Z,1.30
2022-08-30T23:58:04.796Z,1.40
